sensor_id;sensor_type;location;lat;lon;timestamp;temperature;humidity
58519;DHT22;44310;48.106;12.008;2024-01-06T00:00:18;15.20;89.80
58519;DHT22;44310;48.106;12.008;2024-01-06T00:02:45;15.30;90.00
58519;DHT22;44310;48.106;12.008;2024-01-06T00:05:13;15.40;90.10
58519;DHT22;44310;48.106;12.008;2024-01-06T00:07:40;15.50;90.00
58519;DHT22;44310;48.106;12.008;2024-01-06T00:10:07;15.50;90.10
58519;DHT22;44310;48.106;12.008;2024-01-06T00:12:35;15.60;90.10
58519;DHT22;44310;48.106;12.008;2024-01-06T00:15:03;15.70;90.30
58519;DHT22;44310;48.106;12.008;2024-01-06T00:17:31;15.70;90.40
58519;DHT22;44310;48.106;12.008;2024-01-06T00:19:58;15.70;90.70
58519;DHT22;44310;48.106;12.008;2024-01-06T00:22:27;15.80;91.00
58519;DHT22;44310;48.106;12.008;2024-01-06T00:24:54;15.80;91.10
58519;DHT22;44310;48.106;12.008;2024-01-06T00:27:21;15.80;91.20
58519;DHT22;44310;48.106;12.008;2024-01-06T00:29:48;15.80;91.30
58519;DHT22;44310;48.106;12.008;2024-01-06T00:32:16;15.90;91.50
58519;DHT22;44310;48.106;12.008;2024-01-06T00:34:43;15.90;91.60
58519;DHT22;44310;48.106;12.008;2024-01-06T00:37:10;15.90;91.60
58519;DHT22;44310;48.106;12.008;2024-01-06T00:39:37;15.90;91.50
58519;DHT22;44310;48.106;12.008;2024-01-06T00:42:04;15.90;91.50
58519;DHT22;44310;48.106;12.008;2024-01-06T00:44:33;15.90;91.60
58519;DHT22;44310;48.106;12.008;2024-01-06T00:47:00;15.80;91.60
58519;DHT22;44310;48.106;12.008;2024-01-06T00:49:28;15.80;91.70
58519;DHT22;44310;48.106;12.008;2024-01-06T00:51:55;15.80;91.70
58519;DHT22;44310;48.106;12.008;2024-01-06T00:54:22;15.80;92.00
58519;DHT22;44310;48.106;12.008;2024-01-06T00:56:49;15.80;91.80
58519;DHT22;44310;48.106;12.008;2024-01-06T00:59:16;15.80;91.90
58519;DHT22;44310;48.106;12.008;2024-01-06T01:01:43;15.80;92.10
58519;DHT22;44310;48.106;12.008;2024-01-06T01:04:10;15.80;92.20
58519;DHT22;44310;48.106;12.008;2024-01-06T01:06:38;15.80;92.20
58519;DHT22;44310;48.106;12.008;2024-01-06T01:09:05;15.80;92.20
58519;DHT22;44310;48.106;12.008;2024-01-06T01:11:32;15.80;92.20
58519;DHT22;44310;48.106;12.008;2024-01-06T01:13:59;15.80;92.20
58519;DHT22;44310;48.106;12.008;2024-01-06T01:16:26;15.80;92.20
58519;DHT22;44310;48.106;12.008;2024-01-06T01:18:54;15.80;92.10
58519;DHT22;44310;48.106;12.008;2024-01-06T01:21:21;15.70;92.00
58519;DHT22;44310;48.106;12.008;2024-01-06T01:23:48;15.80;92.10
58519;DHT22;44310;48.106;12.008;2024-01-06T01:26:15;15.70;92.20
58519;DHT22;44310;48.106;12.008;2024-01-06T01:28:42;15.80;92.40
58519;DHT22;44310;48.106;12.008;2024-01-06T01:31:09;15.80;92.40
58519;DHT22;44310;48.106;12.008;2024-01-06T01:33:37;15.80;92.70
58519;DHT22;44310;48.106;12.008;2024-01-06T01:36:04;15.90;92.90
58519;DHT22;44310;48.106;12.008;2024-01-06T01:38:31;15.90;92.90
58519;DHT22;44310;48.106;12.008;2024-01-06T01:40:58;15.90;92.90
58519;DHT22;44310;48.106;12.008;2024-01-06T01:43:26;15.90;93.10
58519;DHT22;44310;48.106;12.008;2024-01-06T01:45:56;16.00;93.20
58519;DHT22;44310;48.106;12.008;2024-01-06T01:48:24;16.00;93.20
58519;DHT22;44310;48.106;12.008;2024-01-06T01:50:53;15.90;93.00
58519;DHT22;44310;48.106;12.008;2024-01-06T01:53:21;15.90;93.00
58519;DHT22;44310;48.106;12.008;2024-01-06T01:55:48;16.90;93.40
58519;DHT22;44310;48.106;12.008;2024-01-06T01:58:16;16.00;93.20
58519;DHT22;44310;48.106;12.008;2024-01-06T02:00:43;15.90;93.10
58519;DHT22;44310;48.106;12.008;2024-01-06T02:03:13;15.80;92.90
58519;DHT22;44310;48.106;12.008;2024-01-06T02:05:41;15.90;92.90
58519;DHT22;44310;48.106;12.008;2024-01-06T02:08:08;16.10;92.90
58519;DHT22;44310;48.106;12.008;2024-01-06T02:10:35;15.80;92.80
58519;DHT22;44310;48.106;12.008;2024-01-06T02:13:12;15.80;92.70
58519;DHT22;44310;48.106;12.008;2024-01-06T02:15:39;15.80;92.70
58519;DHT22;44310;48.106;12.008;2024-01-06T02:18:07;15.70;92.70
58519;DHT22;44310;48.106;12.008;2024-01-06T02:20:34;15.80;92.70
58519;DHT22;44310;48.106;12.008;2024-01-06T02:23:02;15.80;92.70
58519;DHT22;44310;48.106;12.008;2024-01-06T02:25:29;15.80;92.80
58519;DHT22;44310;48.106;12.008;2024-01-06T02:27:56;15.70;92.70
58519;DHT22;44310;48.106;12.008;2024-01-06T02:30:24;15.70;92.60
58519;DHT22;44310;48.106;12.008;2024-01-06T02:32:51;15.80;93.00
58519;DHT22;44310;48.106;12.008;2024-01-06T02:35:20;15.90;93.20
58519;DHT22;44310;48.106;12.008;2024-01-06T02:37:47;16.00;93.20
58519;DHT22;44310;48.106;12.008;2024-01-06T02:40:14;15.90;93.20
58519;DHT22;44310;48.106;12.008;2024-01-06T02:42:41;15.90;93.30
58519;DHT22;44310;48.106;12.008;2024-01-06T02:45:09;15.90;93.30
58519;DHT22;44310;48.106;12.008;2024-01-06T02:47:36;15.60;93.40
58519;DHT22;44310;48.106;12.008;2024-01-06T02:50:04;16.00;93.50
58519;DHT22;44310;48.106;12.008;2024-01-06T02:52:32;16.00;93.50
58519;DHT22;44310;48.106;12.008;2024-01-06T02:54:59;16.00;93.60
58519;DHT22;44310;48.106;12.008;2024-01-06T02:57:31;16.00;93.80
58519;DHT22;44310;48.106;12.008;2024-01-06T02:59:58;16.00;93.90
58519;DHT22;44310;48.106;12.008;2024-01-06T03:02:25;16.00;93.90
58519;DHT22;44310;48.106;12.008;2024-01-06T03:04:52;16.00;93.90
58519;DHT22;44310;48.106;12.008;2024-01-06T03:07:19;16.00;93.90
58519;DHT22;44310;48.106;12.008;2024-01-06T03:09:46;16.10;93.90
58519;DHT22;44310;48.106;12.008;2024-01-06T03:12:14;16.00;93.90
58519;DHT22;44310;48.106;12.008;2024-01-06T03:14:42;15.90;93.90
58519;DHT22;44310;48.106;12.008;2024-01-06T03:17:15;15.90;93.80
58519;DHT22;44310;48.106;12.008;2024-01-06T03:19:42;15.90;93.90
58519;DHT22;44310;48.106;12.008;2024-01-06T03:22:09;15.90;93.80
58519;DHT22;44310;48.106;12.008;2024-01-06T03:24:36;15.90;93.90
58519;DHT22;44310;48.106;12.008;2024-01-06T03:27:04;15.90;93.90
58519;DHT22;44310;48.106;12.008;2024-01-06T03:29:31;15.90;94.20
58519;DHT22;44310;48.106;12.008;2024-01-06T03:31:58;15.90;93.80
58519;DHT22;44310;48.106;12.008;2024-01-06T03:34:25;15.90;93.80
58519;DHT22;44310;48.106;12.008;2024-01-06T03:36:52;15.90;93.90
58519;DHT22;44310;48.106;12.008;2024-01-06T03:39:19;15.90;93.90
58519;DHT22;44310;48.106;12.008;2024-01-06T03:41:48;15.90;93.90
58519;DHT22;44310;48.106;12.008;2024-01-06T03:44:15;15.90;93.90
58519;DHT22;44310;48.106;12.008;2024-01-06T03:46:42;15.90;93.90
58519;DHT22;44310;48.106;12.008;2024-01-06T03:49:09;16.00;93.90
58519;DHT22;44310;48.106;12.008;2024-01-06T03:51:37;15.90;93.80
58519;DHT22;44310;48.106;12.008;2024-01-06T03:54:04;15.90;93.80
58519;DHT22;44310;48.106;12.008;2024-01-06T03:56:31;15.90;93.70
58519;DHT22;44310;48.106;12.008;2024-01-06T03:58:58;15.90;93.50
58519;DHT22;44310;48.106;12.008;2024-01-06T04:01:25;15.80;93.40
58519;DHT22;44310;48.106;12.008;2024-01-06T04:03:52;15.80;93.40
58519;DHT22;44310;48.106;12.008;2024-01-06T04:06:20;15.80;93.40
58519;DHT22;44310;48.106;12.008;2024-01-06T04:08:47;15.80;93.30
58519;DHT22;44310;48.106;12.008;2024-01-06T04:11:14;15.80;93.30
58519;DHT22;44310;48.106;12.008;2024-01-06T04:13:41;15.90;93.40
58519;DHT22;44310;48.106;12.008;2024-01-06T04:16:08;15.90;93.70
58519;DHT22;44310;48.106;12.008;2024-01-06T04:18:35;15.90;93.80
58519;DHT22;44310;48.106;12.008;2024-01-06T04:21:03;15.90;93.90
58519;DHT22;44310;48.106;12.008;2024-01-06T04:23:30;15.90;94.00
58519;DHT22;44310;48.106;12.008;2024-01-06T04:25:57;16.00;94.00
58519;DHT22;44310;48.106;12.008;2024-01-06T04:28:24;15.90;94.00
58519;DHT22;44310;48.106;12.008;2024-01-06T04:30:51;16.00;94.00
58519;DHT22;44310;48.106;12.008;2024-01-06T04:33:19;15.90;94.10
58519;DHT22;44310;48.106;12.008;2024-01-06T04:35:46;16.00;94.20
58519;DHT22;44310;48.106;12.008;2024-01-06T04:38:13;16.00;94.20
58519;DHT22;44310;48.106;12.008;2024-01-06T04:40:40;16.00;94.30
58519;DHT22;44310;48.106;12.008;2024-01-06T04:43:07;16.00;94.30
58519;DHT22;44310;48.106;12.008;2024-01-06T04:45:35;16.00;94.30
58519;DHT22;44310;48.106;12.008;2024-01-06T04:48:04;15.90;94.10
58519;DHT22;44310;48.106;12.008;2024-01-06T04:50:31;15.90;94.00
58519;DHT22;44310;48.106;12.008;2024-01-06T04:52:59;15.80;93.90
58519;DHT22;44310;48.106;12.008;2024-01-06T04:55:26;15.90;93.80
58519;DHT22;44310;48.106;12.008;2024-01-06T04:57:53;15.80;93.70
58519;DHT22;44310;48.106;12.008;2024-01-06T05:00:20;15.80;93.60
58519;DHT22;44310;48.106;12.008;2024-01-06T05:02:47;15.80;93.50
58519;DHT22;44310;48.106;12.008;2024-01-06T05:05:14;15.80;93.50
58519;DHT22;44310;48.106;12.008;2024-01-06T05:07:41;15.80;93.60
58519;DHT22;44310;48.106;12.008;2024-01-06T05:10:09;15.80;93.70
58519;DHT22;44310;48.106;12.008;2024-01-06T05:12:36;15.80;93.70
58519;DHT22;44310;48.106;12.008;2024-01-06T05:15:03;15.80;93.60
58519;DHT22;44310;48.106;12.008;2024-01-06T05:17:31;15.80;93.40
58519;DHT22;44310;48.106;12.008;2024-01-06T05:19:58;15.80;93.40
58519;DHT22;44310;48.106;12.008;2024-01-06T05:22:25;15.80;93.70
58519;DHT22;44310;48.106;12.008;2024-01-06T05:24:52;15.90;93.90
58519;DHT22;44310;48.106;12.008;2024-01-06T05:27:20;15.90;93.90
58519;DHT22;44310;48.106;12.008;2024-01-06T05:29:47;15.90;94.00
58519;DHT22;44310;48.106;12.008;2024-01-06T05:32:16;15.90;94.00
58519;DHT22;44310;48.106;12.008;2024-01-06T05:34:44;15.90;93.90
58519;DHT22;44310;48.106;12.008;2024-01-06T05:37:12;15.90;93.90
58519;DHT22;44310;48.106;12.008;2024-01-06T05:39:39;15.90;93.80
58519;DHT22;44310;48.106;12.008;2024-01-06T05:42:10;15.80;93.70
58519;DHT22;44310;48.106;12.008;2024-01-06T05:44:40;15.80;93.60
58519;DHT22;44310;48.106;12.008;2024-01-06T05:47:07;15.80;93.60
58519;DHT22;44310;48.106;12.008;2024-01-06T05:49:35;15.70;93.50
58519;DHT22;44310;48.106;12.008;2024-01-06T05:52:03;15.70;93.40
58519;DHT22;44310;48.106;12.008;2024-01-06T05:54:30;15.70;93.40
58519;DHT22;44310;48.106;12.008;2024-01-06T05:56:58;15.80;93.30
58519;DHT22;44310;48.106;12.008;2024-01-06T05:59:25;15.70;93.20
58519;DHT22;44310;48.106;12.008;2024-01-06T06:01:52;15.70;93.30
58519;DHT22;44310;48.106;12.008;2024-01-06T06:04:19;15.70;93.30
58519;DHT22;44310;48.106;12.008;2024-01-06T06:06:47;15.70;93.20
58519;DHT22;44310;48.106;12.008;2024-01-06T06:09:14;15.70;93.40
58519;DHT22;44310;48.106;12.008;2024-01-06T06:11:42;15.80;93.70
58519;DHT22;44310;48.106;12.008;2024-01-06T06:14:10;15.80;93.70
58519;DHT22;44310;48.106;12.008;2024-01-06T06:16:37;16.30;93.90
58519;DHT22;44310;48.106;12.008;2024-01-06T06:19:04;16.00;93.80
58519;DHT22;44310;48.106;12.008;2024-01-06T06:21:31;15.90;93.70
58519;DHT22;44310;48.106;12.008;2024-01-06T06:23:58;15.90;93.70
58519;DHT22;44310;48.106;12.008;2024-01-06T06:26:27;15.90;93.60
58519;DHT22;44310;48.106;12.008;2024-01-06T06:28:54;15.90;93.60
58519;DHT22;44310;48.106;12.008;2024-01-06T06:31:21;15.90;93.70
58519;DHT22;44310;48.106;12.008;2024-01-06T06:33:48;15.90;93.80
58519;DHT22;44310;48.106;12.008;2024-01-06T06:36:15;15.90;93.70
58519;DHT22;44310;48.106;12.008;2024-01-06T06:38:42;16.10;93.70
58519;DHT22;44310;48.106;12.008;2024-01-06T06:41:10;15.80;93.50
58519;DHT22;44310;48.106;12.008;2024-01-06T06:43:37;15.80;93.50
58519;DHT22;44310;48.106;12.008;2024-01-06T06:46:04;15.80;93.50
58519;DHT22;44310;48.106;12.008;2024-01-06T06:48:31;15.80;93.50
58519;DHT22;44310;48.106;12.008;2024-01-06T06:50:58;16.10;93.60
58519;DHT22;44310;48.106;12.008;2024-01-06T06:53:25;15.80;93.50
58519;DHT22;44310;48.106;12.008;2024-01-06T06:55:55;15.80;93.50
58519;DHT22;44310;48.106;12.008;2024-01-06T06:58:22;15.80;93.50
58519;DHT22;44310;48.106;12.008;2024-01-06T07:00:49;15.80;93.50
58519;DHT22;44310;48.106;12.008;2024-01-06T07:03:17;15.80;93.50
58519;DHT22;44310;48.106;12.008;2024-01-06T07:05:44;15.70;93.40
58519;DHT22;44310;48.106;12.008;2024-01-06T07:08:11;15.60;93.30
58519;DHT22;44310;48.106;12.008;2024-01-06T07:10:40;15.80;93.50
58519;DHT22;44310;48.106;12.008;2024-01-06T07:13:07;15.80;93.80
58519;DHT22;44310;48.106;12.008;2024-01-06T07:15:34;15.90;94.00
58519;DHT22;44310;48.106;12.008;2024-01-06T07:18:02;15.90;94.00
58519;DHT22;44310;48.106;12.008;2024-01-06T07:20:29;15.90;94.00
58519;DHT22;44310;48.106;12.008;2024-01-06T07:22:56;16.00;94.10
58519;DHT22;44310;48.106;12.008;2024-01-06T07:25:23;16.00;94.10
58519;DHT22;44310;48.106;12.008;2024-01-06T07:27:50;16.00;94.10
58519;DHT22;44310;48.106;12.008;2024-01-06T07:30:21;16.00;94.00
58519;DHT22;44310;48.106;12.008;2024-01-06T07:32:48;16.00;94.00
58519;DHT22;44310;48.106;12.008;2024-01-06T07:35:17;16.00;94.20
58519;DHT22;44310;48.106;12.008;2024-01-06T07:37:44;16.90;94.30
58519;DHT22;44310;48.106;12.008;2024-01-06T07:40:12;16.00;94.00
58519;DHT22;44310;48.106;12.008;2024-01-06T07:42:43;16.00;94.10
58519;DHT22;44310;48.106;12.008;2024-01-06T07:45:10;16.00;94.10
58519;DHT22;44310;48.106;12.008;2024-01-06T07:47:38;16.00;94.10
58519;DHT22;44310;48.106;12.008;2024-01-06T07:50:06;16.00;94.10
58519;DHT22;44310;48.106;12.008;2024-01-06T07:52:33;16.00;94.00
58519;DHT22;44310;48.106;12.008;2024-01-06T07:55:00;16.00;94.00
58519;DHT22;44310;48.106;12.008;2024-01-06T07:57:27;16.00;93.90
58519;DHT22;44310;48.106;12.008;2024-01-06T07:59:54;16.00;93.70
58519;DHT22;44310;48.106;12.008;2024-01-06T08:02:22;15.90;93.50
58519;DHT22;44310;48.106;12.008;2024-01-06T08:04:49;15.90;93.40
58519;DHT22;44310;48.106;12.008;2024-01-06T08:07:16;15.90;93.30
58519;DHT22;44310;48.106;12.008;2024-01-06T08:09:43;15.90;93.20
58519;DHT22;44310;48.106;12.008;2024-01-06T08:12:10;15.90;93.10
58519;DHT22;44310;48.106;12.008;2024-01-06T08:14:38;15.90;93.00
58519;DHT22;44310;48.106;12.008;2024-01-06T08:17:05;15.90;93.00
58519;DHT22;44310;48.106;12.008;2024-01-06T08:19:32;15.90;92.90
58519;DHT22;44310;48.106;12.008;2024-01-06T08:22:01;15.90;92.90
58519;DHT22;44310;48.106;12.008;2024-01-06T08:24:28;15.90;92.90
58519;DHT22;44310;48.106;12.008;2024-01-06T08:26:55;15.90;92.90
58519;DHT22;44310;48.106;12.008;2024-01-06T08:29:22;15.90;92.90
58519;DHT22;44310;48.106;12.008;2024-01-06T08:31:49;15.90;92.90
58519;DHT22;44310;48.106;12.008;2024-01-06T08:34:19;16.80;93.10
58519;DHT22;44310;48.106;12.008;2024-01-06T08:36:46;15.90;92.90
58519;DHT22;44310;48.106;12.008;2024-01-06T08:39:13;15.90;92.80
58519;DHT22;44310;48.106;12.008;2024-01-06T08:41:40;15.90;92.80
58519;DHT22;44310;48.106;12.008;2024-01-06T08:44:08;15.90;92.80
58519;DHT22;44310;48.106;12.008;2024-01-06T08:46:35;15.90;92.80
58519;DHT22;44310;48.106;12.008;2024-01-06T08:49:02;15.90;92.80
58519;DHT22;44310;48.106;12.008;2024-01-06T08:51:30;15.90;92.80
58519;DHT22;44310;48.106;12.008;2024-01-06T08:53:57;15.90;92.70
58519;DHT22;44310;48.106;12.008;2024-01-06T08:56:26;15.90;92.70
58519;DHT22;44310;48.106;12.008;2024-01-06T08:58:53;15.90;92.60
58519;DHT22;44310;48.106;12.008;2024-01-06T09:01:20;15.90;92.50
58519;DHT22;44310;48.106;12.008;2024-01-06T09:03:47;15.90;92.40
58519;DHT22;44310;48.106;12.008;2024-01-06T09:06:15;15.90;92.30
58519;DHT22;44310;48.106;12.008;2024-01-06T09:08:42;15.90;92.30
58519;DHT22;44310;48.106;12.008;2024-01-06T09:11:09;15.90;92.20
58519;DHT22;44310;48.106;12.008;2024-01-06T09:13:36;15.90;92.20
58519;DHT22;44310;48.106;12.008;2024-01-06T09:16:04;16.50;92.20
58519;DHT22;44310;48.106;12.008;2024-01-06T09:18:31;15.90;92.00
58519;DHT22;44310;48.106;12.008;2024-01-06T09:20:59;15.90;92.00
58519;DHT22;44310;48.106;12.008;2024-01-06T09:23:26;15.90;92.00
58519;DHT22;44310;48.106;12.008;2024-01-06T09:25:53;15.90;91.90
58519;DHT22;44310;48.106;12.008;2024-01-06T09:28:20;15.90;91.90
58519;DHT22;44310;48.106;12.008;2024-01-06T09:30:50;15.90;91.90
58519;DHT22;44310;48.106;12.008;2024-01-06T09:33:19;15.90;91.80
58519;DHT22;44310;48.106;12.008;2024-01-06T09:35:47;15.90;91.70
58519;DHT22;44310;48.106;12.008;2024-01-06T09:38:14;16.70;91.90
58519;DHT22;44310;48.106;12.008;2024-01-06T09:40:42;15.90;91.70
58519;DHT22;44310;48.106;12.008;2024-01-06T09:43:12;15.90;91.30
58519;DHT22;44310;48.106;12.008;2024-01-06T09:45:40;15.70;90.40
58519;DHT22;44310;48.106;12.008;2024-01-06T09:48:11;15.50;90.30
58519;DHT22;44310;48.106;12.008;2024-01-06T09:50:43;15.40;90.70
58519;DHT22;44310;48.106;12.008;2024-01-06T09:53:14;15.40;90.70
58519;DHT22;44310;48.106;12.008;2024-01-06T09:55:41;15.40;90.50
58519;DHT22;44310;48.106;12.008;2024-01-06T09:58:09;15.50;90.60
58519;DHT22;44310;48.106;12.008;2024-01-06T10:00:37;15.50;90.70
58519;DHT22;44310;48.106;12.008;2024-01-06T10:03:04;15.60;90.90
58519;DHT22;44310;48.106;12.008;2024-01-06T10:05:32;15.70;91.10
58519;DHT22;44310;48.106;12.008;2024-01-06T10:07:59;15.80;91.30
58519;DHT22;44310;48.106;12.008;2024-01-06T10:10:27;15.80;91.30
58519;DHT22;44310;48.106;12.008;2024-01-06T10:12:54;15.90;91.40
58519;DHT22;44310;48.106;12.008;2024-01-06T10:15:22;15.90;91.40
58519;DHT22;44310;48.106;12.008;2024-01-06T10:17:49;15.90;91.40
58519;DHT22;44310;48.106;12.008;2024-01-06T10:20:17;15.90;91.40
58519;DHT22;44310;48.106;12.008;2024-01-06T10:22:45;15.90;91.40
58519;DHT22;44310;48.106;12.008;2024-01-06T10:25:12;15.90;91.50
58519;DHT22;44310;48.106;12.008;2024-01-06T10:27:40;16.00;91.60
58519;DHT22;44310;48.106;12.008;2024-01-06T10:30:09;16.00;91.90
58519;DHT22;44310;48.106;12.008;2024-01-06T10:32:37;16.00;91.90
58519;DHT22;44310;48.106;12.008;2024-01-06T10:35:05;16.00;92.00
58519;DHT22;44310;48.106;12.008;2024-01-06T10:37:33;16.00;92.10
58519;DHT22;44310;48.106;12.008;2024-01-06T10:40:11;16.00;92.20
58519;DHT22;44310;48.106;12.008;2024-01-06T10:42:40;16.00;92.20
58519;DHT22;44310;48.106;12.008;2024-01-06T10:45:11;16.00;92.30
58519;DHT22;44310;48.106;12.008;2024-01-06T10:47:40;16.00;92.40
58519;DHT22;44310;48.106;12.008;2024-01-06T10:50:08;16.00;92.40
58519;DHT22;44310;48.106;12.008;2024-01-06T10:52:37;16.00;92.40
58519;DHT22;44310;48.106;12.008;2024-01-06T10:55:05;16.00;92.50
58519;DHT22;44310;48.106;12.008;2024-01-06T10:57:33;16.00;92.50
58519;DHT22;44310;48.106;12.008;2024-01-06T11:00:01;16.00;92.40
58519;DHT22;44310;48.106;12.008;2024-01-06T11:02:29;15.90;92.40
58519;DHT22;44310;48.106;12.008;2024-01-06T11:04:57;16.00;92.60
58519;DHT22;44310;48.106;12.008;2024-01-06T11:07:25;16.00;92.60
58519;DHT22;44310;48.106;12.008;2024-01-06T11:12:24;15.90;92.60
58519;DHT22;44310;48.106;12.008;2024-01-06T11:14:53;15.90;92.60
58519;DHT22;44310;48.106;12.008;2024-01-06T11:17:52;16.00;92.60
58519;DHT22;44310;48.106;12.008;2024-01-06T11:20:22;15.90;92.60
58519;DHT22;44310;48.106;12.008;2024-01-06T11:22:50;15.90;92.60
58519;DHT22;44310;48.106;12.008;2024-01-06T11:25:19;15.90;92.50
58519;DHT22;44310;48.106;12.008;2024-01-06T11:27:48;15.90;92.60
58519;DHT22;44310;48.106;12.008;2024-01-06T11:30:24;15.90;92.60
58519;DHT22;44310;48.106;12.008;2024-01-06T11:32:53;15.90;92.60
58519;DHT22;44310;48.106;12.008;2024-01-06T11:35:21;16.20;92.70
58519;DHT22;44310;48.106;12.008;2024-01-06T11:40:23;15.90;92.60
58519;DHT22;44310;48.106;12.008;2024-01-06T11:45:36;15.90;92.50
58519;DHT22;44310;48.106;12.008;2024-01-06T11:48:08;15.90;92.40
58519;DHT22;44310;48.106;12.008;2024-01-06T11:50:38;15.90;92.40
58519;DHT22;44310;48.106;12.008;2024-01-06T11:53:07;15.90;92.50
58519;DHT22;44310;48.106;12.008;2024-01-06T11:55:34;15.90;92.50
58519;DHT22;44310;48.106;12.008;2024-01-06T11:58:02;16.00;92.50
58519;DHT22;44310;48.106;12.008;2024-01-06T12:00:32;16.00;92.60
58519;DHT22;44310;48.106;12.008;2024-01-06T12:03:00;16.00;92.80
58519;DHT22;44310;48.106;12.008;2024-01-06T12:05:28;16.60;93.10
58519;DHT22;44310;48.106;12.008;2024-01-06T12:08:01;16.00;93.00
58519;DHT22;44310;48.106;12.008;2024-01-06T12:10:29;16.00;93.00
58519;DHT22;44310;48.106;12.008;2024-01-06T12:13:04;16.00;93.10
58519;DHT22;44310;48.106;12.008;2024-01-06T12:15:32;16.00;93.10
58519;DHT22;44310;48.106;12.008;2024-01-06T12:18:02;16.00;93.10
58519;DHT22;44310;48.106;12.008;2024-01-06T12:20:31;16.00;93.10
58519;DHT22;44310;48.106;12.008;2024-01-06T12:22:59;16.00;93.10
58519;DHT22;44310;48.106;12.008;2024-01-06T12:25:27;16.00;93.10
58519;DHT22;44310;48.106;12.008;2024-01-06T12:27:56;16.00;93.10
58519;DHT22;44310;48.106;12.008;2024-01-06T12:30:23;16.00;93.00
58519;DHT22;44310;48.106;12.008;2024-01-06T12:32:51;16.00;93.00
58519;DHT22;44310;48.106;12.008;2024-01-06T12:35:21;16.00;93.10
58519;DHT22;44310;48.106;12.008;2024-01-06T12:37:49;16.00;93.00
58519;DHT22;44310;48.106;12.008;2024-01-06T12:40:18;16.00;93.00
58519;DHT22;44310;48.106;12.008;2024-01-06T12:42:47;16.00;93.00
58519;DHT22;44310;48.106;12.008;2024-01-06T12:45:14;16.00;93.00
58519;DHT22;44310;48.106;12.008;2024-01-06T12:47:43;16.00;92.90
58519;DHT22;44310;48.106;12.008;2024-01-06T12:50:11;16.00;92.90
58519;DHT22;44310;48.106;12.008;2024-01-06T12:52:38;16.00;92.90
58519;DHT22;44310;48.106;12.008;2024-01-06T12:55:07;15.90;92.80
58519;DHT22;44310;48.106;12.008;2024-01-06T12:57:35;15.90;92.70
58519;DHT22;44310;48.106;12.008;2024-01-06T13:00:03;15.90;92.60
58519;DHT22;44310;48.106;12.008;2024-01-06T13:02:32;15.90;92.50
58519;DHT22;44310;48.106;12.008;2024-01-06T13:05:00;15.90;92.40
58519;DHT22;44310;48.106;12.008;2024-01-06T13:07:27;15.90;92.50
58519;DHT22;44310;48.106;12.008;2024-01-06T13:09:54;15.90;92.50
58519;DHT22;44310;48.106;12.008;2024-01-06T13:12:21;15.90;92.50
58519;DHT22;44310;48.106;12.008;2024-01-06T13:14:50;15.90;92.40
58519;DHT22;44310;48.106;12.008;2024-01-06T13:17:18;15.90;92.40
58519;DHT22;44310;48.106;12.008;2024-01-06T13:19:45;15.90;92.40
58519;DHT22;44310;48.106;12.008;2024-01-06T13:22:12;16.20;92.30
58519;DHT22;44310;48.106;12.008;2024-01-06T13:24:42;15.80;92.10
58519;DHT22;44310;48.106;12.008;2024-01-06T13:27:09;15.90;92.10
58519;DHT22;44310;48.106;12.008;2024-01-06T13:29:36;16.10;92.40
58519;DHT22;44310;48.106;12.008;2024-01-06T13:32:04;15.80;92.00
58519;DHT22;44310;48.106;12.008;2024-01-06T13:34:32;15.80;92.00
58519;DHT22;44310;48.106;12.008;2024-01-06T13:36:59;15.80;91.90
58519;DHT22;44310;48.106;12.008;2024-01-06T13:39:27;15.80;92.00
58519;DHT22;44310;48.106;12.008;2024-01-06T13:41:54;15.90;92.40
58519;DHT22;44310;48.106;12.008;2024-01-06T13:44:21;15.90;92.50
58519;DHT22;44310;48.106;12.008;2024-01-06T13:46:49;15.80;92.50
58519;DHT22;44310;48.106;12.008;2024-01-06T13:49:18;16.00;92.50
58519;DHT22;44310;48.106;12.008;2024-01-06T13:51:45;15.90;91.90
58519;DHT22;44310;48.106;12.008;2024-01-06T13:54:13;15.90;92.00
58519;DHT22;44310;48.106;12.008;2024-01-06T13:56:44;15.80;92.00
58519;DHT22;44310;48.106;12.008;2024-01-06T13:59:11;15.80;91.80
58519;DHT22;44310;48.106;12.008;2024-01-06T14:01:39;15.80;91.90
58519;DHT22;44310;48.106;12.008;2024-01-06T14:04:06;15.80;91.60
58519;DHT22;44310;48.106;12.008;2024-01-06T14:06:34;15.80;91.40
58519;DHT22;44310;48.106;12.008;2024-01-06T14:09:01;15.70;91.30
58519;DHT22;44310;48.106;12.008;2024-01-06T14:11:29;15.70;91.30
58519;DHT22;44310;48.106;12.008;2024-01-06T14:13:58;15.70;91.20
58519;DHT22;44310;48.106;12.008;2024-01-06T14:16:25;15.80;91.10
58519;DHT22;44310;48.106;12.008;2024-01-06T14:18:52;15.80;91.00
58519;DHT22;44310;48.106;12.008;2024-01-06T14:21:20;15.80;91.00
58519;DHT22;44310;48.106;12.008;2024-01-06T14:23:47;15.80;91.00
58519;DHT22;44310;48.106;12.008;2024-01-06T14:26:19;15.80;90.80
58519;DHT22;44310;48.106;12.008;2024-01-06T14:28:50;15.70;90.70
58519;DHT22;44310;48.106;12.008;2024-01-06T14:31:18;15.70;90.50
58519;DHT22;44310;48.106;12.008;2024-01-06T14:33:45;15.80;90.30
58519;DHT22;44310;48.106;12.008;2024-01-06T14:36:13;15.60;90.30
58519;DHT22;44310;48.106;12.008;2024-01-06T14:38:40;15.60;90.30
58519;DHT22;44310;48.106;12.008;2024-01-06T14:41:07;15.60;90.60
58519;DHT22;44310;48.106;12.008;2024-01-06T14:43:34;15.60;90.10
58519;DHT22;44310;48.106;12.008;2024-01-06T14:46:01;15.40;89.70
58519;DHT22;44310;48.106;12.008;2024-01-06T14:48:29;15.20;87.70
58519;DHT22;44310;48.106;12.008;2024-01-06T14:50:56;15.20;86.00
58519;DHT22;44310;48.106;12.008;2024-01-06T14:53:24;14.70;85.60
58519;DHT22;44310;48.106;12.008;2024-01-06T14:55:51;14.70;87.80
58519;DHT22;44310;48.106;12.008;2024-01-06T14:58:18;14.80;88.10
58519;DHT22;44310;48.106;12.008;2024-01-06T15:00:45;14.90;89.00
58519;DHT22;44310;48.106;12.008;2024-01-06T15:03:12;14.90;90.00
58519;DHT22;44310;48.106;12.008;2024-01-06T15:05:39;15.00;90.00
58519;DHT22;44310;48.106;12.008;2024-01-06T15:08:07;15.00;90.70
58519;DHT22;44310;48.106;12.008;2024-01-06T15:10:34;14.90;90.50
58519;DHT22;44310;48.106;12.008;2024-01-06T15:13:01;14.80;90.00
58519;DHT22;44310;48.106;12.008;2024-01-06T15:15:30;14.80;90.20
58519;DHT22;44310;48.106;12.008;2024-01-06T15:17:57;14.90;91.10
58519;DHT22;44310;48.106;12.008;2024-01-06T15:20:25;15.00;91.60
58519;DHT22;44310;48.106;12.008;2024-01-06T15:22:52;15.00;91.70
58519;DHT22;44310;48.106;12.008;2024-01-06T15:25:19;15.00;91.20